createdAt,value
2022-11-17T00:01:13.755Z,6.80
2022-11-17T00:07:38.446Z,6.70
2022-11-17T00:13:58.970Z,6.60
2022-11-17T00:20:21.997Z,6.40
2022-11-17T00:27:03.165Z,6.30
2022-11-17T00:40:12.740Z,6.30
2022-11-17T00:46:21.566Z,6.50
2022-11-17T00:52:36.240Z,6.60
2022-11-17T00:58:57.577Z,6.60
2022-11-17T01:05:03.139Z,6.60
2022-11-17T01:11:12.858Z,6.60
2022-11-17T01:17:47.921Z,6.60
2022-11-17T01:24:02.187Z,6.70
2022-11-17T01:30:30.580Z,6.60
2022-11-17T01:37:00.648Z,6.70
2022-11-17T01:43:05.508Z,6.70
2022-11-17T01:49:25.648Z,6.80
2022-11-17T01:56:01.651Z,6.70
2022-11-17T02:02:59.606Z,6.70
2022-11-17T02:09:02.764Z,6.70
2022-11-17T02:15:39.157Z,6.80
2022-11-17T02:22:02.973Z,6.70
2022-11-17T02:28:58.458Z,6.70
2022-11-17T02:35:39.946Z,6.70
2022-11-17T02:42:10.416Z,6.70
2022-11-17T02:48:41.579Z,6.70
2022-11-17T02:55:11.750Z,6.60
2022-11-17T03:02:03.091Z,6.60
2022-11-17T03:08:54.719Z,6.50
2022-11-17T03:21:57.894Z,6.50
2022-11-17T03:28:09.786Z,6.50
2022-11-17T03:34:35.031Z,6.40
2022-11-17T03:40:56.967Z,6.40
2022-11-17T03:47:20.770Z,6.40
2022-11-17T03:53:53.951Z,6.40
2022-11-17T04:00:27.119Z,6.40
2022-11-17T04:07:01.426Z,6.30
2022-11-17T04:14:04.057Z,6.30
2022-11-17T04:20:20.718Z,6.30
2022-11-17T04:26:58.857Z,6.30
2022-11-17T04:33:14.976Z,6.20
2022-11-17T04:39:24.043Z,6.10
2022-11-17T04:45:50.435Z,6.10
2022-11-17T04:52:01.925Z,6.20
2022-11-17T04:58:15.468Z,6.10
2022-11-17T05:11:38.686Z,6.10
2022-11-17T05:17:49.183Z,6.10
2022-11-17T05:24:05.399Z,6.10
2022-11-17T05:30:39.463Z,6.00
2022-11-17T05:36:56.988Z,6.00
2022-11-17T05:43:34.255Z,6.10
2022-11-17T05:49:51.684Z,6.00
2022-11-17T05:56:44.804Z,6.10
2022-11-17T06:03:42.263Z,6.00
2022-11-17T06:10:14.876Z,6.00
2022-11-17T06:22:56.425Z,5.90
2022-11-17T06:29:08.436Z,5.90
2022-11-17T06:35:39.415Z,5.90
2022-11-17T06:41:50.269Z,5.90
2022-11-17T06:48:03.060Z,6.00
2022-11-17T06:54:15.284Z,5.90
2022-11-17T07:00:24.545Z,5.90
2022-11-17T07:06:37.074Z,5.90
2022-11-17T07:12:56.361Z,5.90
2022-11-17T07:19:04.185Z,5.90
2022-11-17T07:25:28.713Z,6.00
2022-11-17T07:31:50.250Z,6.00
2022-11-17T07:38:04.331Z,6.00
2022-11-17T07:44:06.550Z,6.20
2022-11-17T07:50:17.614Z,6.10
2022-11-17T07:56:22.956Z,6.20
2022-11-17T08:03:02.118Z,6.30
2022-11-17T08:09:24.217Z,6.40
2022-11-17T08:15:39.400Z,6.40
2022-11-17T08:22:05.307Z,6.40
2022-11-17T08:28:29.361Z,6.50
2022-11-17T08:34:31.912Z,6.50
2022-11-17T08:40:34.414Z,6.50
2022-11-17T08:46:41.467Z,6.50
2022-11-17T08:52:46.588Z,6.60
2022-11-17T08:58:49.584Z,6.60
2022-11-17T09:04:52.198Z,6.70
2022-11-17T09:10:55.140Z,6.80
2022-11-17T09:17:02.108Z,6.90
2022-11-17T09:23:07.307Z,7.00
2022-11-17T09:29:12.100Z,7.20
2022-11-17T09:35:16.265Z,7.40
2022-11-17T09:41:42.822Z,7.50
2022-11-17T09:48:41.904Z,7.50
2022-11-17T09:55:08.263Z,7.40
2022-11-17T10:01:20.221Z,7.30
2022-11-17T10:07:51.486Z,7.10
2022-11-17T10:14:31.284Z,7.00
2022-11-17T10:20:57.757Z,6.90
2022-11-17T10:33:48.663Z,7.10
2022-11-17T10:40:05.006Z,7.20
2022-11-17T10:46:16.057Z,7.30
2022-11-17T10:52:28.688Z,7.40
2022-11-17T10:59:03.401Z,7.30
2022-11-17T11:05:21.833Z,7.40
2022-11-17T11:11:46.425Z,7.60
2022-11-17T11:18:00.742Z,7.60
2022-11-17T11:24:41.499Z,7.60
2022-11-17T11:31:08.145Z,7.60
2022-11-17T11:37:23.735Z,7.50
2022-11-17T11:44:00.707Z,7.40
2022-11-17T11:50:21.480Z,7.40
2022-11-17T11:56:58.474Z,7.60
2022-11-17T12:03:35.709Z,7.70
2022-11-17T12:10:17.798Z,7.70
2022-11-17T12:16:43.541Z,7.70
2022-11-17T12:23:25.661Z,7.60
2022-11-17T12:30:10.295Z,7.40
2022-11-17T12:36:32.989Z,7.40
2022-11-17T12:43:29.688Z,7.30
2022-11-17T12:50:01.362Z,7.40
2022-11-17T12:56:32.518Z,7.40
2022-11-17T13:03:29.340Z,7.30
2022-11-17T13:10:02.199Z,7.30
2022-11-17T13:16:24.019Z,7.30
2022-11-17T13:23:11.762Z,7.30
2022-11-17T13:29:48.306Z,7.30
2022-11-17T13:36:46.494Z,7.40
2022-11-17T13:43:02.603Z,7.50
2022-11-17T13:49:47.974Z,7.50
2022-11-17T13:56:04.069Z,7.50
2022-11-17T14:02:43.255Z,7.50
2022-11-17T14:09:07.999Z,7.50
2022-11-17T14:15:38.738Z,7.60
2022-11-17T14:22:36.174Z,7.70
2022-11-17T14:29:11.609Z,7.70
2022-11-17T14:35:33.018Z,7.70
2022-11-17T14:41:47.043Z,7.70
2022-11-17T14:48:01.287Z,7.70
2022-11-17T14:54:11.556Z,7.70
2022-11-17T15:00:31.684Z,7.60
2022-11-17T15:06:33.889Z,7.50
2022-11-17T15:12:36.038Z,7.50
2022-11-17T15:18:38.310Z,7.50
2022-11-17T15:24:40.292Z,7.50
2022-11-17T15:30:43.091Z,7.50
2022-11-17T15:36:44.960Z,7.50
2022-11-17T15:42:46.913Z,7.40
2022-11-17T15:48:52.385Z,7.30
2022-11-17T15:54:54.374Z,7.30
2022-11-17T16:01:26.994Z,7.30
2022-11-17T16:07:29.032Z,7.30
2022-11-17T16:13:32.070Z,7.30
2022-11-17T16:19:33.981Z,7.30
2022-11-17T16:25:47.433Z,7.30
2022-11-17T16:31:50.738Z,7.20
2022-11-17T16:37:52.860Z,7.30
2022-11-17T16:43:55.811Z,7.30
2022-11-17T16:49:57.806Z,7.30
2022-11-17T16:56:17.989Z,7.40
2022-11-17T17:02:20.160Z,7.40
2022-11-17T17:08:22.152Z,7.30
2022-11-17T17:14:24.293Z,7.30
2022-11-17T17:20:26.247Z,7.30
2022-11-17T17:26:30.569Z,7.30
2022-11-17T17:32:32.469Z,7.30
2022-11-17T17:38:35.003Z,7.30
2022-11-17T17:44:36.971Z,7.30
2022-11-17T17:50:40.165Z,7.20
2022-11-17T17:56:42.168Z,7.10
2022-11-17T18:02:44.193Z,6.90
2022-11-17T18:08:46.652Z,6.60
2022-11-17T18:14:48.576Z,6.50
2022-11-17T18:21:03.164Z,6.40
2022-11-17T18:27:05.060Z,6.40
2022-11-17T18:33:07.106Z,6.50
2022-11-17T18:39:09.456Z,6.70
2022-11-17T18:45:11.578Z,6.80
2022-11-17T18:51:19.969Z,6.80
2022-11-17T18:57:22.536Z,6.90
2022-11-17T19:03:24.928Z,7.00
2022-11-17T19:09:26.832Z,7.00
2022-11-17T19:15:28.790Z,7.00
2022-11-17T19:21:33.615Z,7.00
2022-11-17T19:27:35.507Z,7.00
2022-11-17T19:33:39.184Z,7.00
2022-11-17T19:39:41.056Z,6.90
2022-11-17T19:45:43.002Z,6.90
2022-11-17T19:51:45.087Z,6.80
2022-11-17T19:57:47.024Z,6.80
2022-11-17T20:03:49.769Z,6.80
2022-11-17T20:09:51.636Z,6.80
2022-11-17T20:15:57.384Z,6.80
2022-11-17T20:21:59.354Z,6.70
2022-11-17T20:28:01.266Z,6.60
2022-11-17T20:34:05.656Z,6.60
2022-11-17T20:40:08.325Z,6.60
2022-11-17T20:46:10.338Z,6.60
2022-11-17T20:52:13.595Z,6.70
2022-11-17T20:58:15.612Z,6.80
2022-11-17T21:04:17.555Z,6.80
2022-11-17T21:10:19.536Z,6.90
2022-11-17T21:16:21.476Z,7.10
2022-11-17T21:22:23.400Z,7.20
2022-11-17T21:28:25.331Z,7.30
2022-11-17T21:34:27.199Z,7.40
2022-11-17T21:40:29.195Z,7.50
2022-11-17T21:46:33.372Z,7.50
2022-11-17T21:52:35.448Z,7.50
2022-11-17T21:58:37.404Z,7.50
2022-11-17T22:04:39.349Z,7.60
2022-11-17T22:10:41.366Z,7.60
2022-11-17T22:16:48.604Z,7.70
2022-11-17T22:22:54.101Z,7.70
2022-11-17T22:28:56.421Z,7.80
2022-11-17T22:35:01.496Z,7.70
2022-11-17T22:41:05.550Z,7.70
2022-11-17T22:47:07.464Z,7.70
2022-11-17T22:53:09.328Z,7.70
2022-11-17T22:59:11.208Z,7.70
2022-11-17T23:05:13.116Z,7.60
2022-11-17T23:11:36.120Z,7.60
2022-11-17T23:17:37.325Z,7.60
2022-11-17T23:23:40.482Z,7.60
2022-11-17T23:29:42.416Z,7.60
2022-11-17T23:35:44.287Z,7.60
2022-11-17T23:41:46.150Z,7.70
2022-11-17T23:47:48.097Z,7.70
2022-11-17T23:53:50.243Z,7.70
2022-11-17T23:59:52.226Z,7.80
